Time;durP1;ratioP1;P1;durP2;ratioP2;P2;SDS_P1;SDS_P2;PMS_P1;PMS_P2;Temp;Humidity;BMP_temperature;BMP_pressure;BME280_temperature;BME280_humidity;BME280_pressure;Samples;Min_cycle;Max_cycle;Signal;HPM_P1;HPM_P2
2022/04/06 00:00:29;;;;;;;48.60;26.20;;;;;;;8.39;46.83;94588.44;4997741;28;20060;-76
2022/04/06 00:02:54;;;;;;;25.92;12.82;;;;;;;8.37;46.08;94590.47;4998699;28;20034;-76
2022/04/06 00:05:19;;;;;;;49.63;26.20;;;;;;;8.31;46.17;94593.16;4997861;28;20084;-76
2022/04/06 00:07:45;;;;;;;20.95;12.63;;;;;;;8.29;45.49;94585.59;4981743;28;20084;-77
2022/04/06 00:10:12;;;;;;;29.70;11.73;;;;;;;8.28;45.95;94585.81;4998534;28;20092;-76
2022/04/06 00:12:38;;;;;;;24.55;14.15;;;;;;;8.30;46.69;94592.38;4999688;28;20032;-76
2022/04/06 00:15:04;;;;;;;37.63;15.75;;;;;;;8.26;47.64;94588.63;4982948;28;20038;-76
2022/04/06 00:17:30;;;;;;;26.98;13.00;;;;;;;8.20;47.21;94584.34;4998239;28;20096;-77
2022/04/06 00:19:55;;;;;;;26.17;12.25;;;;;;;8.18;47.48;94594.13;4982101;28;20035;-76
2022/04/06 00:22:21;;;;;;;14.68;9.38;;;;;;;8.17;46.24;94591.78;4996906;28;20038;-76
2022/04/06 00:24:47;;;;;;;20.42;9.98;;;;;;;8.16;46.11;94582.41;4981525;28;20030;-77
2022/04/06 00:27:13;;;;;;;21.00;9.30;;;;;;;8.22;44.75;94592.66;4996161;28;20058;-76
2022/04/06 00:29:38;;;;;;;27.92;12.27;;;;;;;8.19;46.93;94593.13;4999341;28;20410;-76
2022/04/06 00:32:04;;;;;;;24.50;10.40;;;;;;;8.13;46.85;94591.41;4998175;28;20034;-76
2022/04/06 00:37:13;;;;;;;20.55;9.80;;;;;;;8.07;48.28;94600.84;4983806;28;20067;-76
2022/04/06 00:39:39;;;;;;;23.67;10.88;;;;;;;8.04;48.68;94592.75;4999838;28;20042;-77
2022/04/06 00:42:05;;;;;;;28.27;10.82;;;;;;;7.94;48.30;94600.25;4981459;28;20426;-76
2022/04/06 00:44:34;;;;;;;30.85;11.75;;;;;;;7.83;48.67;94606.97;4981469;28;20537;-76
2022/04/06 00:47:00;;;;;;;27.33;10.45;;;;;;;7.78;49.10;94602.44;4966495;28;20461;-77
2022/04/06 00:49:26;;;;;;;31.73;10.68;;;;;;;7.65;48.33;94602.63;4982384;28;20128;-76
2022/04/06 00:51:51;;;;;;;23.38;9.73;;;;;;;7.54;49.02;94605.94;5000526;28;20038;-76
2022/04/06 00:54:18;;;;;;;26.23;9.68;;;;;;;7.56;49.46;94603.13;4985880;28;20035;-76
2022/04/06 00:56:45;;;;;;;22.23;9.02;;;;;;;7.57;48.30;94605.50;4998150;28;20034;-77
2022/04/06 00:59:10;;;;;;;21.02;10.68;;;;;;;7.51;49.09;94606.38;4998178;28;20200;-76
2022/04/06 01:01:36;;;;;;;20.52;8.70;;;;;;;7.51;48.46;94602.00;4998100;28;20996;-76
2022/04/06 01:04:02;;;;;;;21.20;9.57;;;;;;;7.47;49.02;94605.22;4998518;28;20533;-77
2022/04/06 01:06:28;;;;;;;25.63;13.57;;;;;;;7.40;49.02;94604.50;4982234;28;20043;-76
2022/04/06 01:08:53;;;;;;;26.58;12.68;;;;;;;7.34;49.31;94607.97;4997061;28;20432;-76
2022/04/06 01:11:20;;;;;;;23.17;11.50;;;;;;;7.32;49.85;94608.19;5002735;28;20069;-76
2022/04/06 01:13:45;;;;;;;46.78;21.90;;;;;;;7.23;49.75;94615.44;4999029;28;20488;-76
2022/04/06 01:16:11;;;;;;;60.72;29.17;;;;;;;7.17;49.70;94605.97;4981919;28;20049;-76
2022/04/06 01:18:36;;;;;;;60.60;30.20;;;;;;;7.10;50.28;94607.81;4998917;28;20030;-77
2022/04/06 01:21:03;;;;;;;71.05;32.22;;;;;;;7.17;49.91;94605.97;4984594;28;20049;-76
2022/04/06 01:23:28;;;;;;;91.95;42.95;;;;;;;7.15;50.93;94607.16;5002482;28;20065;-76
2022/04/06 01:25:54;;;;;;;33.67;18.35;;;;;;;7.14;49.45;94606.38;4983892;28;20073;-77
2022/04/06 01:28:19;;;;;;;39.42;20.75;;;;;;;7.14;49.40;94606.38;5001849;28;20033;-77
2022/04/06 01:30:45;;;;;;;46.38;22.65;;;;;;;7.13;49.33;94602.22;5002707;28;20038;-76
2022/04/06 01:33:11;;;;;;;54.00;28.85;;;;;;;7.14;50.00;94596.03;5002156;28;20037;-76
2022/04/06 01:35:38;;;;;;;48.60;25.25;;;;;;;7.15;50.23;94605.38;4984675;28;20418;-77
2022/04/06 01:38:05;;;;;;;57.20;29.17;;;;;;;7.11;49.86;94593.88;4984716;28;20510;-76
2022/04/06 01:40:43;;;;;;;67.25;32.60;;;;;;;7.08;49.97;94602.06;5000929;28;20097;-76
2022/04/06 01:43:09;;;;;;;57.35;27.92;;;;;;;7.04;50.95;94600.94;4988014;28;20038;-76
2022/04/06 01:45:35;;;;;;;43.97;22.70;;;;;;;7.06;50.57;94603.28;4989463;28;20046;-76
2022/04/06 01:48:00;;;;;;;58.67;21.08;;;;;;;7.03;50.68;94603.72;4989697;28;20034;-76
2022/04/06 01:53:10;;;;;;;50.35;15.45;;;;;;;6.95;51.35;94602.19;4989562;28;20092;-77
2022/04/06 01:55:35;;;;;;;39.60;16.05;;;;;;;6.95;51.78;94607.38;4988595;28;20030;-77
2022/04/06 01:58:00;;;;;;;41.45;15.75;;;;;;;6.86;51.92;94603.50;4989623;28;20045;-77
2022/04/06 02:00:27;;;;;;;31.83;15.73;;;;;;;6.88;51.59;94611.81;4981060;28;20089;-77
2022/04/06 02:02:52;;;;;;;36.03;16.48;;;;;;;6.80;51.23;94614.66;4989539;28;20042;-77
2022/04/06 02:05:18;;;;;;;35.80;17.05;;;;;;;6.75;51.64;94606.78;4972962;28;20026;-77
2022/04/06 02:07:46;;;;;;;38.00;17.83;;;;;;;6.68;51.67;94608.63;4972966;28;20516;-76
2022/04/06 02:10:12;;;;;;;51.40;18.90;;;;;;;6.62;52.09;94613.63;4989198;28;20046;-76
2022/04/06 02:12:37;;;;;;;45.80;17.73;;;;;;;6.62;52.23;94611.03;4988465;28;20096;-76
2022/04/06 02:15:03;;;;;;;43.70;15.45;;;;;;;6.61;51.81;94612.03;4989094;28;20039;-76
2022/04/06 02:17:29;;;;;;;25.75;13.43;;;;;;;6.62;51.82;94618.78;4972279;28;20034;-76
2022/04/06 02:19:54;;;;;;;30.58;13.50;;;;;;;6.62;51.87;94623.97;4993959;28;20051;-76
2022/04/06 02:22:20;;;;;;;29.92;13.50;;;;;;;6.55;52.21;94619.88;4992934;28;20031;-77
2022/04/06 02:24:46;;;;;;;28.83;14.25;;;;;;;6.47;51.83;94618.31;4973001;28;20061;-76
2022/04/06 02:27:11;;;;;;;30.20;13.07;;;;;;;6.43;52.31;94618.97;4971559;28;20038;-77
2022/04/06 02:29:37;;;;;;;47.15;14.50;;;;;;;6.36;53.01;94623.41;4988101;28;20104;-76
2022/04/06 02:32:04;;;;;;;37.47;15.35;;;;;;;6.33;53.20;94619.41;4988486;28;20027;-77
2022/04/06 02:34:29;;;;;;;32.53;14.40;;;;;;;6.44;52.58;94623.91;4980544;28;20034;-76
2022/04/06 02:36:55;;;;;;;44.55;17.13;;;;;;;6.41;52.61;94632.09;4990587;28;20073;-75
2022/04/06 02:39:20;;;;;;;36.03;18.35;;;;;;;6.37;52.27;94630.94;4974028;28;20502;-75
2022/04/06 02:41:46;;;;;;;47.00;22.77;;;;;;;6.30;52.93;94630.16;4983287;28;20038;-75
2022/04/06 02:44:11;;;;;;;52.78;22.20;;;;;;;6.35;52.47;94632.16;4999281;28;20478;-76
2022/04/06 02:46:36;;;;;;;57.70;21.55;;;;;;;6.32;52.41;94628.16;4983059;28;20037;-76
2022/04/06 02:49:02;;;;;;;59.35;21.20;;;;;;;6.28;53.08;94642.50;5001394;28;20101;-76
2022/04/06 02:51:27;;;;;;;46.85;21.50;;;;;;;6.27;52.95;94640.91;4998729;28;20464;-76
2022/04/06 02:53:53;;;;;;;46.03;20.38;;;;;;;6.26;52.63;94634.97;4982016;28;20030;-77
2022/04/06 02:56:18;;;;;;;47.55;16.38;;;;;;;6.29;51.69;94638.91;4982860;28;20034;-77
2022/04/06 02:58:44;;;;;;;37.03;14.60;;;;;;;6.27;51.61;94638.34;4998425;28;20053;-77
2022/04/06 03:01:09;;;;;;;25.15;13.95;;;;;;;6.17;52.06;94645.75;5007466;28;20422;-76
2022/04/06 03:03:34;;;;;;;36.30;14.27;;;;;;;6.18;52.14;94652.47;4999472;28;20046;-76
2022/04/06 03:06:01;;;;;;;37.78;14.05;;;;;;;6.14;51.99;94646.16;5000732;28;20030;-76
2022/04/06 03:08:27;;;;;;;51.97;19.45;;;;;;;6.10;52.18;94650.16;4983347;28;20045;-76
2022/04/06 03:10:52;;;;;;;67.15;28.42;;;;;;;6.06;52.69;94649.00;5001049;28;20041;-76
2022/04/06 03:13:17;;;;;;;71.10;32.30;;;;;;;6.04;52.42;94651.00;5000063;28;20443;-75
2022/04/06 03:15:43;;;;;;;114.80;46.63;;;;;;;6.09;52.23;94649.38;5001008;28;20030;-76
2022/04/06 03:18:08;;;;;;;151.88;64.85;;;;;;;6.07;52.12;94642.84;4998780;28;20576;-76
2022/04/06 03:20:34;;;;;;;148.18;58.25;;;;;;;5.99;52.65;94657.56;4999108;28;20025;-76
2022/04/06 03:22:59;;;;;;;118.22;44.40;;;;;;;5.97;52.75;94659.56;4998935;28;20041;-76
2022/04/06 03:25:25;;;;;;;35.75;15.95;;;;;;;5.99;52.77;94660.13;5000028;28;20050;-76
2022/04/06 03:27:50;;;;;;;31.10;16.42;;;;;;;6.06;52.19;94664.50;4999262;28;20037;-76
2022/04/06 03:30:15;;;;;;;45.78;16.50;;;;;;;6.12;52.42;94666.22;4981193;28;20038;-76
2022/04/06 03:32:41;;;;;;;19.80;12.55;;;;;;;6.16;51.92;94663.03;4998951;28;20041;-76
2022/04/06 03:35:07;;;;;;;29.17;13.18;;;;;;;6.20;51.53;94655.69;4982384;28;20521;-76
2022/04/06 03:37:33;;;;;;;37.25;17.50;;;;;;;6.22;52.24;94657.03;4966714;28;20025;-76
2022/04/06 03:39:58;;;;;;;53.10;20.45;;;;;;;6.19;52.27;94662.63;4982237;28;20042;-76
2022/04/06 03:42:24;;;;;;;47.40;20.08;;;;;;;6.11;52.68;94669.81;4998651;28;20034;-76
2022/04/06 03:44:49;;;;;;;51.08;28.70;;;;;;;6.15;52.53;94679.50;4981769;28;20034;-76
2022/04/06 03:47:15;;;;;;;28.75;14.13;;;;;;;6.10;52.07;94673.41;4986317;28;20124;-75
2022/04/06 03:49:41;;;;;;;20.95;11.15;;;;;;;6.05;51.96;94665.50;4984292;28;20035;-76
2022/04/06 03:52:06;;;;;;;24.60;12.27;;;;;;;6.05;51.52;94673.22;4999231;28;20449;-75
2022/04/06 03:54:32;;;;;;;32.28;13.55;;;;;;;6.04;51.12;94676.81;4981756;28;20092;-76
2022/04/06 03:56:57;;;;;;;28.70;14.57;;;;;;;5.98;51.02;94674.03;4982867;28;20087;-76
2022/04/06 03:59:23;;;;;;;23.15;12.63;;;;;;;5.97;52.12;94669.88;5000225;28;20042;-76
2022/04/06 04:01:48;;;;;;;31.75;14.50;;;;;;;5.98;52.08;94679.19;4986345;28;20036;-76
2022/04/06 04:04:14;;;;;;;53.42;16.48;;;;;;;5.99;52.19;94687.75;4999081;28;20029;-75
2022/04/06 04:06:39;;;;;;;62.20;19.15;;;;;;;5.92;53.55;94682.63;4982320;28;20085;-77
2022/04/06 04:09:04;;;;;;;35.47;15.77;;;;;;;5.91;52.96;94683.63;4997946;28;20084;-77
2022/04/06 04:11:30;;;;;;;60.30;21.50;;;;;;;5.95;53.85;94687.38;4984765;28;20548;-77
2022/04/06 04:13:56;;;;;;;54.35;21.00;;;;;;;5.99;53.08;94685.94;5000924;28;20034;-77
2022/04/06 04:16:21;;;;;;;59.60;26.58;;;;;;;6.07;53.18;94697.84;4997963;28;20022;-77
2022/04/06 04:18:47;;;;;;;68.65;31.75;;;;;;;6.15;52.54;94699.38;4982352;28;20038;-77
2022/04/06 04:23:57;;;;;;;91.90;46.42;;;;;;;6.15;53.40;94699.38;4999830;28;20052;-77
2022/04/06 04:26:22;;;;;;;83.70;41.25;;;;;;;6.26;53.23;94707.25;4989201;28;20038;-77
2022/04/06 04:28:48;;;;;;;104.55;44.92;;;;;;;6.28;52.31;94704.47;5006830;28;20045;-77
2022/04/06 04:31:13;;;;;;;128.45;59.20;;;;;;;6.40;52.00;94713.16;4982786;28;20034;-76
2022/04/06 04:33:39;;;;;;;77.38;34.15;;;;;;;6.58;52.17;94708.06;4982494;28;20095;-76
2022/04/06 04:36:04;;;;;;;58.42;23.02;;;;;;;7.50;50.08;94703.13;4997536;28;20030;-76
2022/04/06 04:38:30;;;;;;;90.30;29.58;;;;;;;8.72;46.84;94712.34;4998138;28;20559;-76
2022/04/06 04:40:56;;;;;;;95.68;30.55;;;;;;;10.01;43.91;94711.53;4981638;28;20035;-76
2022/04/06 04:43:22;;;;;;;100.25;31.60;;;;;;;11.32;41.17;94710.41;5014843;28;20041;-77
2022/04/06 04:45:48;;;;;;;58.92;24.55;;;;;;;12.62;37.83;94716.72;4997319;28;20034;-76
2022/04/06 04:48:13;;;;;;;39.08;16.73;;;;;;;13.84;35.42;94716.09;4982789;28;20093;-76
2022/04/06 04:50:39;;;;;;;30.58;12.60;;;;;;;15.08;32.37;94717.72;4981445;28;20030;-76
2022/04/06 04:53:05;;;;;;;20.27;9.68;;;;;;;16.33;30.10;94710.94;4985243;28;20659;-75
2022/04/06 04:55:32;;;;;;;16.85;8.30;;;;;;;17.74;28.47;94708.41;5002765;28;20449;-76
2022/04/06 04:57:57;;;;;;;19.63;9.07;;;;;;;18.93;26.33;94720.63;5002204;28;20121;-76
2022/04/06 05:00:23;;;;;;;19.05;9.18;;;;;;;19.91;24.51;94720.66;5003128;28;20038;-77
2022/04/06 05:02:48;;;;;;;17.75;9.23;;;;;;;21.05;23.18;94718.84;5000588;28;20049;-76
2022/04/06 05:05:14;;;;;;;23.65;9.05;;;;;;;22.07;21.61;94728.53;5001155;28;20034;-77
2022/04/06 05:07:39;;;;;;;23.77;9.20;;;;;;;23.08;20.43;94726.72;4985115;28;20030;-77
2022/04/06 05:10:06;;;;;;;26.15;10.18;;;;;;;23.94;19.46;94731.94;4985605;28;20046;-77
2022/04/06 05:12:32;;;;;;;46.22;10.57;;;;;;;24.61;19.12;94729.63;4991436;28;20494;-78
2022/04/06 05:14:59;;;;;;;26.70;10.05;;;;;;;25.39;18.04;94737.84;5004833;28;20037;-78
2022/04/06 05:17:25;;;;;;;36.72;8.77;;;;;;;26.13;17.48;94734.25;5005470;28;20050;-78
2022/04/06 05:19:50;;;;;;;20.17;8.75;;;;;;;26.73;16.91;94737.28;4985154;28;20092;-77
2022/04/06 05:22:17;;;;;;;20.70;8.70;;;;;;;27.49;15.36;94737.19;5002661;28;20038;-77
2022/04/06 05:24:42;;;;;;;26.08;9.07;;;;;;;28.13;15.40;94746.13;5001189;28;20117;-78
2022/04/06 05:27:07;;;;;;;26.80;8.48;;;;;;;28.50;14.66;94741.31;4984857;28;20032;-78
2022/04/06 05:29:34;;;;;;;19.05;8.70;;;;;;;29.49;14.06;94736.59;5002432;28;20040;-77
2022/04/06 05:31:59;;;;;;;21.98;8.52;;;;;;;30.34;13.11;94743.47;4999371;28;20049;-78
2022/04/06 05:34:25;;;;;;;21.92;8.15;;;;;;;30.55;13.06;94742.25;5001404;28;20132;-77
2022/04/06 05:36:51;;;;;;;18.42;8.57;;;;;;;30.52;12.69;94745.66;4983841;28;20029;-78
2022/04/06 05:39:16;;;;;;;17.02;8.55;;;;;;;30.59;12.81;94751.13;5003549;28;20031;-78
2022/04/06 05:41:49;;;;;;;16.38;7.53;;;;;;;30.67;12.87;94750.91;5003164;28;20037;-78
2022/04/06 05:44:16;;;;;;;16.35;7.47;;;;;;;30.45;12.56;94752.47;4985462;28;20471;-78
2022/04/06 05:46:41;;;;;;;30.48;9.77;;;;;;;30.16;13.20;94753.16;4984362;28;20045;-77
2022/04/06 05:49:10;;;;;;;13.02;7.95;;;;;;;29.64;13.80;94751.03;5001897;28;20087;-78
2022/04/06 05:51:35;;;;;;;22.38;8.50;;;;;;;28.90;14.45;94756.38;5001447;28;20507;-79
2022/04/06 05:54:02;;;;;;;22.48;8.80;;;;;;;28.42;14.19;94763.66;4999841;28;20061;-78
2022/04/06 05:56:31;;;;;;;23.45;7.47;;;;;;;27.85;15.04;94759.56;5002344;28;20030;-77
2022/04/06 05:58:56;;;;;;;15.45;8.32;;;;;;;27.37;15.37;94755.19;5002079;28;20123;-78
2022/04/06 06:01:22;;;;;;;19.77;8.93;;;;;;;26.66;15.72;94763.75;5000835;28;20478;-77
2022/04/06 06:03:48;;;;;;;28.45;9.23;;;;;;;25.96;16.72;94758.44;5000904;28;20052;-77
2022/04/06 06:06:14;;;;;;;18.83;9.00;;;;;;;25.78;16.89;94763.19;5000236;28;20065;-77
2022/04/06 06:08:39;;;;;;;21.48;8.45;;;;;;;25.26;17.31;94763.63;5000762;28;20037;-76
2022/04/06 06:11:05;;;;;;;17.70;8.70;;;;;;;24.80;17.93;94767.19;5001541;28;20037;-76
2022/04/06 06:13:31;;;;;;;24.88;9.60;;;;;;;24.37;18.55;94762.88;4999952;28;20493;-76
2022/04/06 06:15:56;;;;;;;19.58;8.80;;;;;;;24.02;19.19;94769.41;5001850;28;20033;-77
2022/04/06 06:18:22;;;;;;;30.20;9.13;;;;;;;23.79;19.54;94766.97;5000275;28;20034;-78
2022/04/06 06:20:48;;;;;;;20.98;8.68;;;;;;;23.54;20.05;94765.09;5000612;28;20405;-78
2022/04/06 06:23:16;;;;;;;24.77;8.65;;;;;;;23.23;20.15;94765.25;4983664;28;20038;-77
2022/04/06 06:25:42;;;;;;;30.27;8.60;;;;;;;23.04;20.98;94760.28;4998833;28;20030;-76
2022/04/06 06:28:08;;;;;;;14.63;8.00;;;;;;;22.94;20.53;94758.72;5000067;28;20362;-76
2022/04/06 06:30:33;;;;;;;32.78;8.52;;;;;;;22.75;21.04;94756.31;5001177;28;20037;-77
2022/04/06 06:32:59;;;;;;;18.70;6.88;;;;;;;22.55;21.27;94762.19;4998492;28;20023;-76
2022/04/06 06:35:24;;;;;;;31.88;8.07;;;;;;;22.44;21.35;94764.34;4999855;28;20034;-77
2022/04/06 06:37:51;;;;;;;19.33;8.35;;;;;;;22.41;21.80;94757.00;5017809;28;20030;-77
2022/04/06 06:40:17;;;;;;;28.88;8.73;;;;;;;22.33;21.86;94757.78;5001507;28;20434;-76
2022/04/06 06:42:43;;;;;;;30.60;10.05;;;;;;;22.27;22.04;94758.19;5001753;28;20088;-76
2022/04/06 06:45:09;;;;;;;19.33;9.45;;;;;;;22.17;22.30;94746.81;4983609;28;20033;-76
2022/04/06 06:47:35;;;;;;;22.60;10.02;;;;;;;22.02;22.58;94755.13;5000138;28;20477;-76
2022/04/06 06:50:00;;;;;;;27.02;8.88;;;;;;;21.87;22.68;94752.88;5006464;28;20062;-77
2022/04/06 06:52:26;;;;;;;25.17;10.23;;;;;;;21.80;22.69;94755.16;4999689;28;20429;-76
2022/04/06 06:54:51;;;;;;;29.88;9.50;;;;;;;21.66;23.11;94757.13;5001952;28;20726;-76
2022/04/06 06:57:17;;;;;;;22.33;9.25;;;;;;;21.45;23.63;94751.53;5000537;28;20496;-76
2022/04/06 06:59:42;;;;;;;19.70;9.48;;;;;;;21.06;24.08;94749.50;4999847;28;20169;-76
2022/04/06 07:02:09;;;;;;;34.80;11.55;;;;;;;20.71;24.07;94756.34;4999254;28;20037;-77
2022/04/06 07:04:35;;;;;;;26.80;10.80;;;;;;;20.36;24.59;94759.38;4999328;28;20120;-77
2022/04/06 07:07:00;;;;;;;30.67;11.15;;;;;;;19.90;25.23;94761.31;4998199;28;20184;-77
2022/04/06 07:09:25;;;;;;;39.92;11.85;;;;;;;19.91;25.54;94762.88;4982913;28;20543;-76
2022/04/06 07:11:52;;;;;;;28.17;11.70;;;;;;;19.76;25.33;94751.50;4999295;28;20026;-77
2022/04/06 07:14:18;;;;;;;37.40;12.73;;;;;;;19.78;25.51;94759.91;4998548;28;20129;-76
2022/04/06 07:16:44;;;;;;;37.78;11.80;;;;;;;19.68;25.80;94757.44;4998166;28;20030;-75
2022/04/06 07:19:09;;;;;;;29.25;11.82;;;;;;;19.37;26.29;94765.06;4997778;28;20026;-75
2022/04/06 07:21:35;;;;;;;23.33;10.18;;;;;;;19.35;26.51;94761.13;5000253;28;20414;-75
2022/04/06 07:24:03;;;;;;;21.85;10.05;;;;;;;19.24;26.44;94765.78;4999108;28;20417;-75
2022/04/06 07:26:28;;;;;;;18.52;9.15;;;;;;;19.25;26.80;94758.66;4982983;28;20129;-76
2022/04/06 07:28:54;;;;;;;26.98;10.50;;;;;;;19.23;26.82;94758.16;4998493;28;20509;-75
2022/04/06 07:31:19;;;;;;;36.28;12.50;;;;;;;19.32;26.68;94759.06;4999931;28;20034;-75
2022/04/06 07:33:45;;;;;;;29.10;11.88;;;;;;;19.44;27.05;94759.41;4982569;28;20870;-76
2022/04/06 07:36:10;;;;;;;21.75;9.93;;;;;;;19.40;26.51;94759.19;4998869;28;20049;-75
2022/04/06 07:38:38;;;;;;;34.60;10.38;;;;;;;19.39;26.19;94762.13;4981982;28;20042;-76
2022/04/06 07:41:03;;;;;;;29.48;10.52;;;;;;;19.37;26.30;94769.53;4997008;28;20478;-76
2022/04/06 07:43:29;;;;;;;15.45;9.65;;;;;;;19.40;26.50;94758.41;5012297;28;20084;-78
2022/04/06 07:45:54;;;;;;;16.20;9.05;;;;;;;19.46;26.80;94757.25;4998582;28;20061;-77
2022/04/06 07:48:19;;;;;;;19.58;10.25;;;;;;;19.50;26.90;94759.03;4998191;28;20041;-76
2022/04/06 07:50:48;;;;;;;25.98;11.32;;;;;;;19.54;26.60;94753.19;5004554;28;20053;-76
2022/04/06 07:53:13;;;;;;;22.33;11.25;;;;;;;19.49;26.37;94767.22;4997518;28;20436;-76
2022/04/06 07:55:39;;;;;;;25.92;9.77;;;;;;;19.49;26.67;94761.94;4998331;28;20069;-77
2022/04/06 07:58:04;;;;;;;22.48;10.50;;;;;;;19.47;26.34;94767.50;4996941;28;20081;-77
2022/04/06 08:00:33;;;;;;;29.98;10.15;;;;;;;19.47;26.70;94758.81;4978642;28;20036;-76
2022/04/06 08:03:04;;;;;;;32.65;12.40;;;;;;;19.49;26.48;94757.47;4997730;28;20036;-76
2022/04/06 08:05:29;;;;;;;29.60;11.73;;;;;;;19.52;26.57;94750.03;4999247;28;20396;-76
2022/04/06 08:07:55;;;;;;;26.50;11.10;;;;;;;19.58;26.43;94760.25;4997819;28;20033;-75
2022/04/06 08:10:22;;;;;;;34.20;11.35;;;;;;;19.69;26.76;94758.25;4997027;28;20469;-76
2022/04/06 08:12:47;;;;;;;19.92;10.98;;;;;;;19.77;26.59;94760.97;5003705;28;20180;-76
2022/04/06 08:15:14;;;;;;;29.13;10.43;;;;;;;19.85;27.07;94750.81;4978990;28;20544;-77
2022/04/06 08:17:46;;;;;;;25.02;11.25;;;;;;;19.85;27.03;94748.19;4994673;28;20031;-75
2022/04/06 08:20:12;;;;;;;;;;;;;;;19.83;26.50;94752.97;4996753;28;20045;-75
2022/04/06 08:22:41;;;;;;;26.52;10.55;;;;;;;19.78;27.03;94748.56;5022925;28;19924;-75
2022/04/06 08:25:07;;;;;;;22.42;10.50;;;;;;;19.64;26.81;94756.44;4981730;28;20033;-75
2022/04/06 08:27:36;;;;;;;28.35;11.15;;;;;;;19.59;26.86;94756.56;5001061;28;20026;-75
2022/04/06 08:30:04;;;;;;;32.13;10.90;;;;;;;19.42;26.87;94740.44;4985205;28;20023;-75
2022/04/06 08:32:30;;;;;;;33.75;10.82;;;;;;;19.40;27.16;94748.66;5001159;28;20045;-76
2022/04/06 08:34:55;;;;;;;27.40;10.68;;;;;;;19.36;28.08;94754.75;4985300;28;20037;-76
2022/04/06 08:37:21;;;;;;;26.58;10.02;;;;;;;19.35;27.35;94746.06;5000409;28;20053;-76
2022/04/06 08:39:46;;;;;;;26.83;10.57;;;;;;;19.33;27.34;94742.16;4999926;28;20088;-75
2022/04/06 08:42:12;;;;;;;24.63;9.60;;;;;;;19.38;27.17;94745.53;5002906;28;20034;-76
2022/04/06 08:44:37;;;;;;;39.60;12.55;;;;;;;19.41;27.80;94738.88;5001356;28;20029;-76
2022/04/06 08:47:04;;;;;;;31.58;10.00;;;;;;;19.44;27.73;94738.31;4986186;28;20044;-76
2022/04/06 08:49:29;;;;;;;27.38;10.25;;;;;;;19.47;27.30;94743.00;4992770;28;20409;-76
2022/04/06 08:51:56;;;;;;;50.47;10.20;;;;;;;19.48;27.94;94731.38;4989491;28;20034;-81
2022/04/06 08:54:22;;;;;;;26.25;9.90;;;;;;;19.41;27.47;94738.88;4986849;28;20033;-82
2022/04/06 08:56:48;;;;;;;25.35;9.15;;;;;;;19.33;27.88;94732.41;4990438;28;20034;-81
2022/04/06 08:59:14;;;;;;;22.38;9.90;;;;;;;19.28;27.26;94723.81;5005060;28;20033;-82
2022/04/06 09:01:39;;;;;;;20.95;9.35;;;;;;;19.22;27.62;94730.22;5004989;28;20026;-82
2022/04/06 09:04:05;;;;;;;18.90;8.85;;;;;;;19.16;27.30;94732.94;5005235;28;20097;-82
2022/04/06 09:06:38;;;;;;;16.33;8.57;;;;;;;19.13;27.00;94722.97;5003224;28;20038;-82
2022/04/06 09:09:03;;;;;;;20.77;8.52;;;;;;;19.11;27.66;94725.09;4988492;28;20066;-81
2022/04/06 09:11:29;;;;;;;37.38;8.93;;;;;;;19.09;27.91;94716.72;5007653;28;20042;-81
2022/04/06 09:14:02;;;;;;;33.55;8.65;;;;;;;19.10;27.13;94720.13;5005601;28;20422;-81
2022/04/06 09:16:32;;;;;;;31.83;8.75;;;;;;;19.06;26.37;94713.88;5018732;28;20034;-81
2022/04/06 09:18:57;;;;;;;19.20;7.75;;;;;;;18.89;25.80;94712.53;4987933;28;20412;-81
2022/04/06 09:21:23;;;;;;;17.50;7.68;;;;;;;18.82;25.84;94708.66;5007559;28;20105;-82
2022/04/06 09:23:48;;;;;;;19.02;8.52;;;;;;;18.81;26.68;94713.16;4993754;28;20400;-82
2022/04/06 09:26:16;;;;;;;28.30;8.40;;;;;;;18.86;26.41;94701.75;4993325;28;20042;-81
2022/04/06 09:28:44;;;;;;;21.33;7.68;;;;;;;18.90;27.19;94700.13;4996293;28;20059;-79
2022/04/06 09:31:15;;;;;;;14.85;7.72;;;;;;;18.98;26.29;94696.84;5012645;28;20055;-80
2022/04/06 09:33:41;;;;;;;13.07;6.57;;;;;;;19.00;25.88;94691.28;4995434;28;20050;-79
2022/04/06 09:36:19;;;;;;;29.40;7.57;;;;;;;19.06;25.82;94688.28;4993634;28;20034;-81
2022/04/06 09:38:47;;;;;;;14.27;5.70;;;;;;;19.06;24.35;94696.19;5009204;28;20087;-80
2022/04/06 09:41:15;;;;;;;6.30;4.05;;;;;;;19.02;23.16;94682.00;5001021;28;20040;-80
2022/04/06 09:43:41;;;;;;;6.22;4.43;;;;;;;18.98;24.11;94678.41;5013602;28;20102;-81
2022/04/06 09:49:09;;;;;;;6.53;4.13;;;;;;;18.93;23.52;94680.34;5015712;28;20046;-80
2022/04/06 09:51:38;;;;;;;5.60;4.07;;;;;;;18.86;23.46;94680.69;5002132;28;20031;-81
2022/04/06 09:54:05;;;;;;;4.53;4.00;;;;;;;18.77;23.80;94666.59;4989315;28;20042;-81
2022/04/06 09:56:31;;;;;;;11.25;4.40;;;;;;;18.78;24.72;94662.91;5003850;28;20034;-81
2022/04/06 09:58:57;;;;;;;6.13;2.90;;;;;;;18.69;24.47;94664.59;4991153;28;20081;-80
2022/04/06 10:01:30;;;;;;;9.18;3.45;;;;;;;18.66;24.55;94657.28;4989525;28;20794;-80
2022/04/06 10:03:55;;;;;;;;;;;;;;;18.69;25.87;94649.56;5006976;28;20052;-79
2022/04/06 10:06:22;;;;;;;7.88;3.78;;;;;;;18.71;25.69;94654.56;5007583;28;19968;-80
2022/04/06 10:08:47;;;;;;;11.75;3.88;;;;;;;18.76;25.10;94649.25;4989139;28;20061;-80
2022/04/06 10:11:12;;;;;;;12.00;4.03;;;;;;;18.72;25.56;94645.63;4996991;28;20037;-80
2022/04/06 10:13:38;;;;;;;7.93;4.70;;;;;;;18.75;24.89;94639.78;5008277;28;20061;-80
2022/04/06 10:16:04;;;;;;;6.68;4.38;;;;;;;18.78;24.47;94639.97;5016176;28;20022;-77
2022/04/06 10:18:31;;;;;;;10.15;4.40;;;;;;;18.63;25.16;94627.03;5005717;28;20029;-80
2022/04/06 10:21:00;;;;;;;10.25;3.60;;;;;;;18.58;25.47;94627.88;5011128;28;20065;-79
2022/04/06 10:23:41;;;;;;;17.60;4.35;;;;;;;18.60;25.52;94620.47;5006338;28;20117;-80
2022/04/06 10:26:25;;;;;;;8.20;3.88;;;;;;;18.68;25.50;94626.94;4990508;28;20619;-79
2022/04/06 10:28:51;;;;;;;15.80;4.03;;;;;;;18.72;25.96;94621.91;5006295;28;20134;-79
2022/04/06 10:31:22;;;;;;;7.55;4.47;;;;;;;18.73;25.05;94620.84;4987987;28;20097;-80
2022/04/06 10:33:49;;;;;;;22.33;4.32;;;;;;;18.67;25.34;94616.69;5014787;28;20390;-79
2022/04/06 10:36:28;;;;;;;11.68;3.72;;;;;;;18.78;25.86;94615.47;5019946;28;20037;-80
2022/04/06 10:39:05;;;;;;;13.55;4.50;;;;;;;18.74;24.93;94611.88;5005244;28;20048;-80
2022/04/06 10:41:32;;;;;;;5.43;3.70;;;;;;;18.63;25.28;94602.50;5012561;28;20045;-80
2022/04/06 10:43:57;;;;;;;5.18;4.18;;;;;;;18.60;25.59;94604.66;4989888;28;20085;-81
2022/04/06 10:46:39;;;;;;;7.78;4.18;;;;;;;18.66;25.51;94600.13;4986006;28;20034;-78
2022/04/06 10:49:09;;;;;;;9.10;4.15;;;;;;;18.66;25.89;94601.97;5004413;28;20091;-78
2022/04/06 10:51:38;;;;;;;11.00;4.32;;;;;;;18.68;25.46;94581.38;5005640;28;20026;-78
2022/04/06 10:54:13;;;;;;;13.48;4.93;;;;;;;18.69;25.82;94580.31;5008639;28;20273;-78
2022/04/06 10:56:55;;;;;;;12.27;3.97;;;;;;;18.79;26.00;94580.16;5014860;28;20037;-78
2022/04/06 10:59:22;;;;;;;6.22;4.43;;;;;;;18.85;26.20;94579.00;5005691;28;20114;-78
2022/04/06 11:01:48;;;;;;;16.35;4.18;;;;;;;18.84;25.57;94580.84;5004303;28;20388;-79
2022/04/06 11:04:23;;;;;;;6.80;4.15;;;;;;;18.77;26.00;94569.91;5004147;28;20493;-78
2022/04/06 11:06:56;;;;;;;14.75;4.85;;;;;;;18.83;26.95;94566.13;5012565;28;20034;-79
2022/04/06 11:12:21;;;;;;;9.95;4.68;;;;;;;18.99;25.56;94558.75;5012506;28;20144;-77
2022/04/06 11:15:08;;;;;;;10.68;4.65;;;;;;;18.98;25.84;94573.00;5041345;28;20092;-77
2022/04/06 11:17:34;;;;;;;20.73;5.07;;;;;;;18.96;25.75;94569.09;5018619;28;20069;-77
2022/04/06 11:20:02;;;;;;;8.38;4.18;;;;;;;18.98;25.97;94559.03;5005613;28;20096;-79
2022/04/06 11:22:28;;;;;;;14.50;4.60;;;;;;;19.02;26.12;94552.88;4987062;28;20394;-78
2022/04/06 11:24:56;;;;;;;15.23;4.75;;;;;;;19.02;26.30;94555.53;5001357;28;20095;-77
2022/04/06 11:27:26;;;;;;;9.35;4.10;;;;;;;19.04;25.44;94540.22;4988621;28;20053;-78
2022/04/06 11:30:18;;;;;;;6.85;4.13;;;;;;;19.05;25.94;94531.25;5002523;28;20036;-77
2022/04/06 11:33:04;;;;;;;10.27;4.05;;;;;;;19.11;25.74;94535.34;5003237;28;20113;-78
2022/04/06 11:35:34;;;;;;;11.50;4.25;;;;;;;19.12;25.75;94528.22;5002404;28;20050;-78